Time;durP1;ratioP1;P1;durP2;ratioP2;P2;SDS_P1;SDS_P2;PMS_P1;PMS_P2;Temp;Humidity;BMP_temperature;BMP_pressure;BME280_temperature;BME280_humidity;BME280_pressure;Samples;Min_cycle;Max_cycle;Signal;HPM_P1;HPM_P2
2021/05/06 00:01:58;;;;;;;4.35;3.30;;;;;;;15.59;65.89;98298.84;5112386;28;20118;-79
2021/05/06 00:34:11;;;;;;;4.20;3.22;;;;;;;15.70;64.95;98321.59;5111574;28;20024;-80
2021/05/06 00:36:36;;;;;;;4.90;3.55;;;;;;;15.68;64.83;98319.22;5110256;28;20089;-80
2021/05/06 00:39:08;;;;;;;4.43;4.00;;;;;;;15.68;64.67;98319.22;5111959;28;20023;-80
2021/05/06 01:00:29;;;;;;;7.90;3.40;;;;;;;15.59;65.20;98328.50;5088570;28;20133;-80
2021/05/06 01:05:42;;;;;;;5.03;4.10;;;;;;;15.59;65.11;98328.50;5115403;28;20122;-80
2021/05/06 01:13:04;;;;;;;4.45;3.65;;;;;;;15.50;65.22;98318.53;5115485;28;20567;-80
2021/05/06 01:15:29;;;;;;;5.72;4.15;;;;;;;15.49;65.20;98335.81;5113899;28;20033;-80
2021/05/06 01:17:55;;;;;;;7.75;3.88;;;;;;;15.44;65.28;98336.00;5114010;28;20031;-80
2021/05/06 01:20:21;;;;;;;6.72;3.30;;;;;;;15.44;65.00;98333.31;5114160;28;20032;-80
2021/05/06 01:22:47;;;;;;;4.65;4.07;;;;;;;15.41;65.08;98330.47;5115152;28;20023;-80
2021/05/06 01:25:13;;;;;;;4.70;3.63;;;;;;;15.40;64.65;98337.75;5114069;28;20012;-81
2021/05/06 01:27:57;;;;;;;5.93;3.65;;;;;;;15.40;64.89;98343.16;5113691;28;20118;-81
2021/05/06 01:32:58;;;;;;;7.13;4.18;;;;;;;15.39;64.63;98335.41;5115004;28;20019;-80
2021/05/06 01:35:59;;;;;;;4.03;3.40;;;;;;;15.37;64.76;98333.03;5113624;28;20462;-80
2021/05/06 01:46:59;;;;;;;6.35;3.58;;;;;;;15.30;65.23;98363.16;5114552;28;20034;-80
2021/05/06 01:57:36;;;;;;;4.88;3.45;;;;;;;15.14;65.68;98378.31;5114570;28;20066;-80
2021/05/06 02:00:12;;;;;;;7.72;3.83;;;;;;;15.11;66.11;98377.03;5113238;28;20020;-80
2021/05/06 02:02:37;;;;;;;6.07;4.15;;;;;;;15.12;66.67;98377.81;5113049;28;20031;-80
2021/05/06 02:05:04;;;;;;;8.20;3.85;;;;;;;15.12;66.60;98373.22;5113156;28;20020;-80
2021/05/06 02:07:30;;;;;;;4.63;4.03;;;;;;;15.16;66.98;98382.25;5112754;28;20499;-80
2021/05/06 02:09:55;;;;;;;6.97;3.75;;;;;;;15.19;67.27;98375.41;5113011;28;20115;-80
2021/05/06 02:12:21;;;;;;;10.82;3.97;;;;;;;15.22;67.09;98374.75;5112878;28;20027;-80
2021/05/06 02:15:01;;;;;;;4.03;3.70;;;;;;;15.25;66.72;98384.91;5112051;28;20489;-80
2021/05/06 02:17:26;;;;;;;5.93;4.22;;;;;;;15.29;66.57;98380.44;5112777;28;20426;-80
2021/05/06 02:19:52;;;;;;;7.28;4.25;;;;;;;15.31;66.49;98378.22;5112795;28;20110;-80
2021/05/06 02:22:19;;;;;;;7.15;4.18;;;;;;;15.32;66.38;98379.81;5112724;28;20023;-80
2021/05/06 02:24:45;;;;;;;7.15;4.70;;;;;;;15.34;66.51;98385.66;5112496;28;20051;-80
2021/05/06 02:27:12;;;;;;;7.68;4.45;;;;;;;15.36;66.57;98385.34;5112887;28;20414;-80
2021/05/06 02:29:37;;;;;;;5.70;4.43;;;;;;;15.38;66.40;98391.19;5112535;28;20393;-80
2021/05/06 02:32:04;;;;;;;5.72;4.28;;;;;;;15.40;66.10;98385.47;5112275;28;20060;-80
2021/05/06 02:34:29;;;;;;;4.65;3.88;;;;;;;15.42;66.19;98394.03;5112270;28;20031;-80
2021/05/06 02:36:55;;;;;;;5.18;3.42;;;;;;;15.42;66.03;98394.03;5112512;28;20035;-80
2021/05/06 02:39:20;;;;;;;5.15;4.15;;;;;;;15.45;66.02;98396.06;5112563;28;20059;-80
2021/05/06 02:41:46;;;;;;;5.03;3.92;;;;;;;15.47;65.77;98393.84;5112202;28;20030;-79
2021/05/06 02:44:11;;;;;;;7.22;3.70;;;;;;;15.47;65.98;98391.16;5112463;28;20059;-80
2021/05/06 02:46:37;;;;;;;5.82;3.63;;;;;;;15.48;65.77;98395.44;5112074;28;20032;-80
2021/05/06 02:49:03;;;;;;;4.32;3.70;;;;;;;15.50;65.59;98396.69;5112398;28;20027;-80
2021/05/06 02:51:43;;;;;;;5.13;3.60;;;;;;;15.51;65.36;98395.56;5112255;28;20027;-80
2021/05/06 02:54:08;;;;;;;4.00;3.15;;;;;;;15.54;65.43;98407.59;5112216;28;20019;-80
2021/05/06 02:56:40;;;;;;;5.10;3.58;;;;;;;15.55;65.30;98405.69;5111851;28;20462;-80
2021/05/06 03:04:24;;;;;;;3.88;3.38;;;;;;;15.62;65.05;98417.53;5113314;28;20118;-79
2021/05/06 03:06:54;;;;;;;4.95;3.50;;;;;;;15.62;64.89;98417.53;5111725;28;20023;-79
2021/05/06 03:09:38;;;;;;;4.03;3.38;;;;;;;15.62;65.20;98422.94;5111607;28;20020;-79
2021/05/06 03:23:04;;;;;;;8.60;4.32;;;;;;;15.62;65.38;98435.63;5109276;28;20570;-79
2021/05/06 03:25:30;;;;;;;8.32;4.38;;;;;;;15.61;65.51;98439.44;5111487;28;20028;-79
2021/05/06 03:28:11;;;;;;;4.95;4.22;;;;;;;15.61;65.68;98440.25;5111375;28;20027;-79
2021/05/06 03:47:04;;;;;;;7.60;6.13;;;;;;;15.52;66.47;98461.81;5112297;28;20416;-80
2021/05/06 04:27:36;;;;;;;5.60;4.68;;;;;;;16.80;62.86;98514.88;5111870;28;20034;-80
2021/05/06 04:38:00;;;;;;;4.85;4.00;;;;;;;16.79;62.37;98572.69;5111286;28;20436;-79
2021/05/06 05:06:25;;;;;;;6.97;3.88;;;;;;;20.05;53.46;98585.47;5111327;28;20024;-78
2021/05/06 05:26:54;;;;;;;4.03;3.40;;;;;;;22.10;46.01;98604.41;5110825;28;20032;-79
2021/05/06 05:29:19;;;;;;;10.15;3.47;;;;;;;22.25;44.15;98613.59;5109823;28;20035;-79
2021/05/06 05:31:45;;;;;;;5.63;3.67;;;;;;;22.28;45.58;98615.59;5109062;28;20444;-80
2021/05/06 05:34:45;;;;;;;3.65;3.28;;;;;;;22.48;44.47;98614.34;5109746;28;20019;-80
2021/05/06 05:37:02;;;;;;;4.28;3.35;;;;;;;22.62;42.60;98608.34;5107223;28;20073;-80
2021/05/06 05:39:37;;;;;;;3.33;2.53;;;;;;;22.85;42.22;98624.63;5109634;28;20020;-82
2021/05/06 05:55:23;;;;;;;3.08;1.75;;;;;;;24.00;36.74;98627.13;5114650;28;20075;-81
2021/05/06 05:57:51;;;;;;;4.85;2.13;;;;;;;24.20;36.83;98633.16;5112844;28;20031;-80
2021/05/06 06:00:17;;;;;;;4.45;2.20;;;;;;;24.39;36.03;98637.59;5113106;28;20432;-81
2021/05/06 06:02:43;;;;;;;2.70;1.52;;;;;;;24.56;35.43;98630.69;5112883;28;20027;-81
2021/05/06 06:05:10;;;;;;;2.05;1.30;;;;;;;24.70;34.95;98643.69;5113018;28;20115;-80
2021/05/06 06:07:35;;;;;;;3.15;1.67;;;;;;;24.92;35.14;98641.09;5113129;28;20331;-80
2021/05/06 06:10:01;;;;;;;1.65;1.55;;;;;;;24.69;35.00;98641.34;5112807;28;20333;-80
2021/05/06 06:12:26;;;;;;;4.05;2.10;;;;;;;24.88;34.72;98638.34;5112870;28;20028;-81
2021/05/06 06:14:59;;;;;;;2.15;1.63;;;;;;;25.03;35.08;98641.16;5112684;28;20463;-81
2021/05/06 06:17:25;;;;;;;3.10;2.03;;;;;;;25.17;34.78;98645.88;5112862;28;20019;-81
2021/05/06 06:19:51;;;;;;;7.15;2.00;;;;;;;25.19;34.45;98641.59;5112644;28;20450;-80
2021/05/06 06:22:19;;;;;;;2.38;1.88;;;;;;;25.19;35.34;98636.13;5112724;28;20027;-80
2021/05/06 06:24:45;;;;;;;4.28;3.53;;;;;;;25.31;34.75;98637.75;5112353;28;20055;-80
2021/05/06 06:27:12;;;;;;;3.42;2.30;;;;;;;25.46;34.70;98638.59;5112863;28;20073;-80
2021/05/06 06:29:37;;;;;;;3.33;2.45;;;;;;;25.45;35.17;98645.25;5112496;28;20027;-81
2021/05/06 06:32:06;;;;;;;2.65;2.38;;;;;;;25.56;34.75;98640.59;5111970;28;20551;-81
2021/05/06 06:34:31;;;;;;;2.60;1.83;;;;;;;25.70;34.86;98644.53;5112599;28;20028;-81
2021/05/06 06:36:57;;;;;;;3.58;2.47;;;;;;;25.66;34.15;98638.25;5112237;28;20020;-81
2021/05/06 06:39:24;;;;;;;2.88;1.98;;;;;;;25.75;34.54;98640.66;5112515;28;20132;-81
2021/05/06 06:41:49;;;;;;;5.43;2.03;;;;;;;25.66;34.24;98641.78;5112102;28;20496;-81
2021/05/06 06:44:17;;;;;;;6.90;2.05;;;;;;;25.70;34.06;98642.56;5112331;28;20055;-81
2021/05/06 06:46:42;;;;;;;2.28;1.70;;;;;;;25.73;34.53;98647.28;5112328;28;20050;-81
2021/05/06 06:49:10;;;;;;;2.08;1.88;;;;;;;25.69;34.57;98651.97;5112093;28;20458;-81
2021/05/06 06:51:35;;;;;;;2.33;1.77;;;;;;;25.57;35.42;98655.06;5112135;28;20390;-81
2021/05/06 06:54:01;;;;;;;1.95;1.85;;;;;;;25.55;35.45;98647.25;5111985;28;20032;-81
2021/05/06 06:56:26;;;;;;;2.90;1.85;;;;;;;25.49;34.78;98656.22;5112187;28;20480;-81
2021/05/06 06:58:53;;;;;;;2.03;1.77;;;;;;;25.44;35.38;98651.91;5111704;28;20015;-81
2021/05/06 07:01:19;;;;;;;4.57;2.15;;;;;;;25.38;35.39;98656.19;5111442;28;20019;-80
2021/05/06 07:03:45;;;;;;;2.50;2.05;;;;;;;25.33;34.57;98645.56;5111780;28;20379;-80
2021/05/06 07:06:11;;;;;;;4.38;1.98;;;;;;;25.27;34.86;98656.09;5111871;28;20031;-81
2021/05/06 07:08:40;;;;;;;4.78;2.47;;;;;;;25.03;35.37;98646.63;5111793;28;20493;-81
2021/05/06 07:11:07;;;;;;;3.00;1.40;;;;;;;24.97;34.46;98653.63;5111498;28;20035;-81
2021/05/06 07:13:33;;;;;;;3.58;2.03;;;;;;;24.91;34.53;98639.50;5111782;28;20027;-81
2021/05/06 07:16:05;;;;;;;4.25;2.47;;;;;;;24.82;34.02;98636.34;5111410;28;20033;-81
2021/05/06 07:18:31;;;;;;;2.35;2.00;;;;;;;24.80;33.91;98638.69;5111637;28;20012;-82
2021/05/06 07:20:58;;;;;;;2.33;2.13;;;;;;;24.74;34.28;98638.25;5111351;28;20081;-80
2021/05/06 07:23:24;;;;;;;2.50;2.20;;;;;;;24.62;34.41;98629.16;5111546;28;20053;-80
2021/05/06 07:25:53;;;;;;;1.98;1.70;;;;;;;24.52;34.05;98635.34;5111147;28;20073;-80
2021/05/06 07:28:21;;;;;;;2.78;1.52;;;;;;;24.49;33.51;98640.81;5111509;28;20386;-79
2021/05/06 07:30:49;;;;;;;2.97;1.77;;;;;;;24.13;34.72;98644.00;5110901;28;20046;-79
2021/05/06 07:33:15;;;;;;;4.53;2.13;;;;;;;24.05;35.76;98636.94;5110843;28;20438;-80
2021/05/06 07:35:42;;;;;;;1.63;1.50;;;;;;;24.08;34.88;98649.81;5112401;28;20077;-80
2021/05/06 07:38:09;;;;;;;1.90;1.70;;;;;;;24.06;35.17;98644.75;5110983;28;20084;-80
2021/05/06 07:40:36;;;;;;;2.95;1.77;;;;;;;24.09;35.55;98645.94;5111145;28;20032;-82
2021/05/06 07:43:03;;;;;;;1.43;1.30;;;;;;;24.18;35.44;98646.41;5110653;28;20386;-80
2021/05/06 07:45:30;;;;;;;1.58;1.48;;;;;;;24.24;35.61;98653.09;5110972;28;20360;-79
2021/05/06 07:47:55;;;;;;;2.67;1.77;;;;;;;24.29;35.59;98655.47;5110721;28;20092;-79
2021/05/06 07:50:22;;;;;;;3.95;1.40;;;;;;;24.41;35.56;98664.53;5111090;28;20031;-79
2021/05/06 07:52:50;;;;;;;3.30;1.48;;;;;;;24.51;34.99;98668.53;5110836;28;20024;-80
2021/05/06 07:55:16;;;;;;;2.05;1.67;;;;;;;24.58;33.89;98658.44;5111029;28;20466;-80
2021/05/06 07:57:42;;;;;;;2.05;1.27;;;;;;;24.67;33.97;98671.00;5110984;28;20027;-79
2021/05/06 08:00:11;;;;;;;1.50;1.40;;;;;;;24.75;32.80;98678.88;5110714;28;20165;-79
2021/05/06 08:02:36;;;;;;;1.65;1.55;;;;;;;24.85;32.56;98673.88;5110819;28;20485;-80
2021/05/06 08:05:02;;;;;;;2.08;1.98;;;;;;;24.85;31.81;98671.94;5110751;28;20027;-79
2021/05/06 08:07:28;;;;;;;1.52;1.42;;;;;;;24.78;32.26;98669.16;5111171;28;20020;-79
2021/05/06 08:09:53;;;;;;;2.30;1.38;;;;;;;24.82;32.72;98677.38;5110646;28;20114;-79
2021/05/06 08:12:20;;;;;;;1.77;1.10;;;;;;;24.80;32.38;98666.03;5110690;28;20019;-78
2021/05/06 08:14:46;;;;;;;3.03;1.83;;;;;;;24.74;32.81;98680.06;5110257;28;20035;-79
2021/05/06 08:17:11;;;;;;;7.95;1.98;;;;;;;24.75;32.55;98684.34;5110684;28;20470;-80
2021/05/06 08:19:37;;;;;;;3.03;1.70;;;;;;;24.75;32.46;98678.88;5110711;28;20041;-79
2021/05/06 08:22:03;;;;;;;1.98;1.50;;;;;;;24.74;32.58;98679.25;5110408;28;20035;-80
2021/05/06 08:24:29;;;;;;;2.20;1.10;;;;;;;24.74;32.09;98682.00;5110551;28;20016;-80
2021/05/06 08:26:54;;;;;;;2.53;1.30;;;;;;;24.78;32.01;98677.34;5110309;28;20493;-80
2021/05/06 08:29:20;;;;;;;1.60;1.42;;;;;;;24.85;31.80;98688.34;5110634;28;20031;-79
2021/05/06 08:31:46;;;;;;;2.72;1.58;;;;;;;24.88;31.73;98682.09;5109867;28;20547;-80
2021/05/06 08:34:12;;;;;;;1.70;1.60;;;;;;;24.91;31.27;98686.00;5110406;28;20039;-79
2021/05/06 08:36:38;;;;;;;1.70;1.60;;;;;;;24.96;31.13;98682.13;5110153;28;20505;-80
2021/05/06 08:39:05;;;;;;;4.38;1.40;;;;;;;24.98;30.98;98690.75;5110291;28;20043;-79
2021/05/06 08:41:31;;;;;;;2.00;1.33;;;;;;;24.99;30.09;98684.88;5110429;28;20050;-79
2021/05/06 08:43:59;;;;;;;1.70;1.50;;;;;;;24.93;30.45;98691.88;5110259;28;20022;-78
2021/05/06 08:46:38;;;;;;;1.60;1.10;;;;;;;24.98;31.48;98698.97;5110518;28;20027;-80
2021/05/06 08:49:07;;;;;;;1.50;1.40;;;;;;;24.98;29.67;98696.22;5110146;28;20386;-80
2021/05/06 08:51:34;;;;;;;1.80;1.20;;;;;;;24.99;30.37;98698.56;5110256;28;20019;-80
2021/05/06 08:53:59;;;;;;;1.63;1.52;;;;;;;24.88;30.22;98698.50;5109980;28;20098;-80
2021/05/06 08:56:26;;;;;;;1.10;1.05;;;;;;;24.89;29.75;98697.34;5110290;28;20390;-81
2021/05/06 08:58:51;;;;;;;2.25;1.17;;;;;;;24.87;30.07;98694.19;5109939;28;20122;-80
2021/05/06 09:01:18;;;;;;;1.77;1.23;;;;;;;24.81;30.86;98690.25;5109133;28;20740;-80
2021/05/06 09:03:43;;;;;;;1.52;1.13;;;;;;;24.80;30.80;98704.31;5109388;28;20062;-79
2021/05/06 09:06:17;;;;;;;1.75;1.50;;;;;;;24.83;31.12;98692.59;5109838;28;20024;-80
2021/05/06 09:08:49;;;;;;;4.28;1.52;;;;;;;24.88;31.15;98692.25;5105127;28;20027;-79
2021/05/06 09:11:15;;;;;;;3.47;1.20;;;;;;;24.85;27.88;98704.75;5089236;28;20027;-80
2021/05/06 09:13:41;;;;;;;2.15;1.45;;;;;;;24.85;28.45;98706.69;5108195;28;20046;-80
2021/05/06 09:16:07;;;;;;;1.35;1.20;;;;;;;24.86;29.24;98700.06;5109613;28;20413;-80
2021/05/06 09:18:39;;;;;;;1.38;1.08;;;;;;;24.86;29.97;98700.81;5104624;28;20032;-81
2021/05/06 09:21:07;;;;;;;1.65;1.20;;;;;;;24.86;30.16;98686.38;5109158;28;20024;-80
2021/05/06 09:23:34;;;;;;;1.73;1.48;;;;;;;24.87;30.13;98687.94;5109524;28;20081;-79
2021/05/06 09:26:05;;;;;;;3.17;1.58;;;;;;;24.80;30.41;98691.41;5112673;28;20387;-80
2021/05/06 09:28:33;;;;;;;2.10;1.20;;;;;;;24.79;31.27;98689.84;5113876;28;20051;-79
2021/05/06 09:31:08;;;;;;;0.88;0.88;;;;;;;24.77;31.06;98689.44;5112386;28;20043;-81
2021/05/06 09:33:39;;;;;;;1.60;1.10;;;;;;;24.73;31.63;98694.09;5113071;28;20581;-80
2021/05/06 09:36:12;;;;;;;1.52;1.17;;;;;;;24.73;31.74;98681.22;5113486;28;20081;-79
2021/05/06 09:38:47;;;;;;;3.47;1.20;;;;;;;24.73;30.40;98685.88;5093352;28;20343;-79
2021/05/06 09:41:17;;;;;;;2.38;1.08;;;;;;;24.71;30.76;98675.34;5092809;28;20039;-79
2021/05/06 09:43:44;;;;;;;3.03;1.20;;;;;;;24.74;30.78;98674.59;5093243;28;20024;-79
2021/05/06 09:46:32;;;;;;;6.22;1.38;;;;;;;24.72;30.73;98682.38;5093019;28;20020;-80
2021/05/06 09:49:09;;;;;;;2.40;1.10;;;;;;;24.74;31.41;98682.78;5097399;28;20030;-82
2021/05/06 09:51:57;;;;;;;1.60;1.00;;;;;;;24.78;31.40;98689.06;5113466;28;20019;-80
2021/05/06 09:54:26;;;;;;;2.17;1.45;;;;;;;24.80;31.02;98685.16;5113470;28;20092;-80
2021/05/06 09:57:01;;;;;;;2.22;1.42;;;;;;;24.81;30.29;98698.44;5113362;28;20022;-81
2021/05/06 09:59:33;;;;;;;2.20;1.40;;;;;;;24.85;29.38;98702.00;5113153;28;20028;-80
2021/05/06 10:02:10;;;;;;;2.60;1.60;;;;;;;24.86;28.95;98695.34;5113039;28;20019;-80
2021/05/06 10:04:37;;;;;;;1.73;1.23;;;;;;;24.90;29.59;98701.66;5113250;28;20498;-81
2021/05/06 10:07:11;;;;;;;2.08;1.58;;;;;;;24.92;29.64;98704.78;5112913;28;20487;-81
2021/05/06 10:09:57;;;;;;;1.40;1.30;;;;;;;24.99;29.91;98697.78;5113121;28;20027;-81
2021/05/06 10:12:28;;;;;;;2.60;1.23;;;;;;;25.02;30.41;98684.13;5113057;28;20347;-81
2021/05/06 10:14:55;;;;;;;2.17;1.10;;;;;;;25.05;30.39;98691.56;5112635;28;20402;-80
2021/05/06 10:17:21;;;;;;;3.38;1.50;;;;;;;25.09;30.07;98702.53;5112906;28;20027;-80
2021/05/06 10:19:47;;;;;;;2.50;1.50;;;;;;;25.13;29.31;98694.34;5112694;28;20101;-81
2021/05/06 10:22:15;;;;;;;0.95;0.80;;;;;;;25.18;29.43;98700.25;5112709;28;20132;-81
2021/05/06 10:24:42;;;;;;;;;;;;;;;25.20;29.82;98695.16;5113414;28;20038;-79
2021/05/06 10:27:11;;;;;;;2.55;1.08;;;;;;;25.16;29.06;98693.56;5112290;28;19907;-80
2021/05/06 10:29:36;;;;;;;4.60;1.40;;;;;;;25.14;29.51;98691.22;5112462;28;20063;-80
2021/05/06 10:32:02;;;;;;;1.75;1.35;;;;;;;25.15;30.53;98694.75;5111463;28;20487;-80
2021/05/06 10:34:29;;;;;;;2.42;1.25;;;;;;;25.24;29.32;98692.44;5108154;28;20491;-81
2021/05/06 10:36:55;;;;;;;3.13;1.63;;;;;;;25.26;28.46;98693.63;5091420;28;20455;-81
2021/05/06 10:39:20;;;;;;;2.42;1.13;;;;;;;25.30;29.13;98699.13;5091787;28;20020;-81
2021/05/06 10:41:46;;;;;;;2.35;1.30;;;;;;;25.35;29.10;98692.50;5092086;28;20518;-81
2021/05/06 10:44:14;;;;;;;4.22;1.48;;;;;;;25.42;28.65;98695.28;5091805;28;20047;-81
2021/05/06 10:47:00;;;;;;;2.20;1.35;;;;;;;25.43;29.31;98702.34;5091980;28;20463;-81
2021/05/06 10:49:38;;;;;;;1.75;1.65;;;;;;;25.52;29.92;98694.56;5091968;28;20440;-81
2021/05/06 10:52:09;;;;;;;1.88;1.33;;;;;;;25.59;26.63;98696.53;5091555;28;20031;-81
2021/05/06 10:54:37;;;;;;;0.85;0.80;;;;;;;25.60;27.06;98689.88;5091742;28;20498;-81
2021/05/06 10:57:32;;;;;;;0.85;0.80;;;;;;;25.68;26.13;98694.22;5091470;28;20368;-81
2021/05/06 10:59:58;;;;;;;3.55;1.00;;;;;;;25.76;26.35;98692.28;5091565;28;20455;-80
2021/05/06 11:02:45;;;;;;;2.60;1.38;;;;;;;25.84;26.51;98682.91;5091775;28;20494;-80
2021/05/06 11:05:18;;;;;;;1.50;0.88;;;;;;;25.80;26.08;98690.31;5091408;28;20016;-80
2021/05/06 11:08:02;;;;;;;1.17;0.90;;;;;;;25.71;24.21;98698.91;5091607;28;20501;-80
2021/05/06 11:10:28;;;;;;;3.78;2.25;;;;;;;25.57;24.83;98685.19;5091492;28;20027;-81
2021/05/06 11:12:58;;;;;;;1.17;0.80;;;;;;;25.50;24.61;98690.63;5091114;28;20028;-82
2021/05/06 11:15:29;;;;;;;3.97;1.15;;;;;;;25.49;25.54;98691.81;5091363;28;20402;-82
2021/05/06 11:17:56;;;;;;;2.50;0.90;;;;;;;25.55;25.63;98693.00;5091276;28;20027;-82
2021/05/06 11:20:23;;;;;;;1.05;0.90;;;;;;;25.61;25.46;98682.44;5091049;28;20035;-82
2021/05/06 11:22:54;;;;;;;1.10;1.00;;;;;;;25.72;24.99;98691.50;5091059;28;20390;-82
2021/05/06 11:25:47;;;;;;;1.45;0.85;;;;;;;25.82;24.54;98687.22;5090877;28;20020;-82
2021/05/06 11:28:11;;;;;;;1.95;0.90;;;;;;;25.82;23.37;98685.25;5091534;28;20132;-81
2021/05/06 11:30:43;;;;;;;2.30;1.42;;;;;;;25.89;23.95;98695.47;5090921;28;20092;-82
2021/05/06 11:33:21;;;;;;;1.83;1.58;;;;;;;25.99;24.15;98697.41;5090677;28;20030;-81
2021/05/06 11:36:06;;;;;;;2.38;0.85;;;;;;;26.02;23.67;98693.91;5091123;28;20032;-81
2021/05/06 11:38:38;;;;;;;2.15;1.00;;;;;;;26.04;24.52;98694.28;5090820;28;20024;-82
2021/05/06 11:41:11;;;;;;;1.60;0.98;;;;;;;26.02;23.26;98687.63;5090648;28;20085;-81
2021/05/06 11:43:48;;;;;;;2.90;1.63;;;;;;;26.01;24.49;98694.28;5090808;28;20043;-81
2021/05/06 11:46:16;;;;;;;2.63;1.23;;;;;;;26.00;24.24;98706.41;5090690;28;20031;-82
2021/05/06 11:48:47;;;;;;;1.67;1.23;;;;;;;26.02;23.97;98701.34;5089814;28;20020;-81
2021/05/06 11:51:30;;;;;;;3.08;1.00;;;;;;;26.03;25.14;98691.94;5090474;28;20016;-81
2021/05/06 11:54:05;;;;;;;2.50;1.00;;;;;;;26.08;24.95;98694.31;5090447;28;20023;-81
2021/05/06 11:56:30;;;;;;;3.65;1.48;;;;;;;26.10;25.13;98692.00;5090751;28;20066;-82
2021/05/06 11:58:56;;;;;;;1.95;0.80;;;;;;;26.12;23.77;98705.28;5090643;28;20043;-82
2021/05/06 12:01:29;;;;;;;5.68;1.60;;;;;;;26.11;23.63;98703.72;5090299;28;20024;-82
2021/05/06 12:03:56;;;;;;;2.40;0.98;;;;;;;26.11;23.62;98699.03;5090542;28;20039;-82
2021/05/06 12:06:33;;;;;;;1.23;0.90;;;;;;;26.10;23.02;98699.41;5090201;28;20024;-82
2021/05/06 12:09:00;;;;;;;3.15;1.25;;;;;;;26.09;23.53;98693.16;5090877;28;20016;-82
2021/05/06 12:11:37;;;;;;;2.17;0.80;;;;;;;26.11;23.58;98692.75;5090319;28;20536;-82
2021/05/06 12:14:04;;;;;;;0.80;0.75;;;;;;;26.12;24.18;98694.34;5091501;28;20016;-82
2021/05/06 12:16:29;;;;;;;1.48;1.10;;;;;;;26.15;24.86;98686.13;5090373;28;20031;-82
2021/05/06 12:19:11;;;;;;;1.15;1.00;;;;;;;26.17;24.37;98688.47;5090333;28;20023;-81
2021/05/06 12:21:52;;;;;;;1.83;1.20;;;;;;;26.10;24.24;98692.00;5090500;28;20402;-82
2021/05/06 12:24:32;;;;;;;10.35;5.13;;;;;;;26.07;23.92;98687.28;5090000;28;20017;-82
2021/05/06 12:26:59;;;;;;;6.68;3.45;;;;;;;26.08;24.56;98682.59;5090461;28;20058;-82
2021/05/06 12:29:29;;;;;;;3.13;1.52;;;;;;;26.10;24.08;98681.03;5089982;28;20028;-82
2021/05/06 12:31:55;;;;;;;1.85;1.13;;;;;;;26.11;24.39;98685.34;5090035;28;20071;-83
2021/05/06 12:34:24;;;;;;;3.90;1.10;;;;;;;26.16;25.12;98675.97;5089956;28;20471;-82
2021/05/06 12:36:51;;;;;;;1.55;1.13;;;;;;;26.26;24.58;98672.44;5090188;28;20509;-83
2021/05/06 12:39:18;;;;;;;4.85;1.17;;;;;;;26.33;23.50;98671.63;5089818;28;20020;-82
2021/05/06 12:41:59;;;;;;;0.68;0.65;;;;;;;26.40;21.78;98662.63;5090159;28;20031;-82
2021/05/06 12:44:41;;;;;;;0.50;0.50;;;;;;;26.50;22.73;98662.63;5089855;28;20035;-82
2021/05/06 12:47:11;;;;;;;0.70;0.70;;;;;;;26.58;22.50;98654.41;5089685;28;20085;-82
2021/05/06 12:49:36;;;;;;;2.35;0.65;;;;;;;26.72;22.70;98661.81;5090012;28;20063;-82
2021/05/06 12:52:01;;;;;;;2.13;0.60;;;;;;;26.75;22.16;98663.81;5089714;28;20078;-82
2021/05/06 12:54:33;;;;;;;1.23;1.13;;;;;;;26.78;23.15;98663.81;5089938;28;20016;-81
2021/05/06 12:57:15;;;;;;;1.30;1.00;;;;;;;26.75;22.59;98663.81;5089880;28;20024;-82
2021/05/06 12:59:48;;;;;;;1.45;1.17;;;;;;;26.65;22.59;98654.41;5090887;28;20428;-82
2021/05/06 13:02:14;;;;;;;1.15;0.88;;;;;;;26.59;23.01;98656.75;5093728;28;20113;-81
2021/05/06 13:04:52;;;;;;;1.30;1.17;;;;;;;26.51;23.51;98663.41;5094030;28;20465;-82
2021/05/06 13:07:19;;;;;;;1.05;0.82;;;;;;;26.46;22.58;98655.59;5093632;28;20107;-82
2021/05/06 13:09:50;;;;;;;2.17;1.17;;;;;;;26.40;23.03;98651.66;5093875;28;20059;-80
2021/05/06 13:12:18;;;;;;;0.80;0.75;;;;;;;26.31;23.18;98647.38;5093447;28;20024;-80
2021/05/06 13:14:47;;;;;;;3.63;1.20;;;;;;;26.26;24.17;98641.50;5093335;28;20047;-81
2021/05/06 13:17:23;;;;;;;0.95;0.80;;;;;;;26.27;24.45;98638.38;5093468;28;20028;-81
2021/05/06 13:19:49;;;;;;;1.20;0.77;;;;;;;26.31;24.25;98639.13;5093696;28;20020;-81
2021/05/06 13:22:14;;;;;;;1.73;1.30;;;;;;;26.35;23.72;98633.66;5093302;28;20180;-82
2021/05/06 13:24:41;;;;;;;1.55;0.90;;;;;;;26.35;23.78;98639.94;5093754;28;20024;-81
2021/05/06 13:27:26;;;;;;;1.33;1.02;;;;;;;26.41;23.74;98632.09;5093315;28;20475;-82
2021/05/06 13:29:57;;;;;;;0.88;0.65;;;;;;;26.45;23.79;98627.41;5093486;28;20509;-80
2021/05/06 13:32:33;;;;;;;1.23;0.82;;;;;;;26.45;23.71;98632.06;5093120;28;20016;-82
2021/05/06 13:34:59;;;;;;;0.88;0.88;;;;;;;26.45;23.60;98632.88;5094882;28;20390;-80
2021/05/06 13:37:44;;;;;;;2.50;0.82;;;;;;;26.45;23.62;98626.59;5093484;28;20038;-81
2021/05/06 13:40:10;;;;;;;0.93;0.93;;;;;;;26.48;23.83;98634.81;5093066;28;20081;-80
2021/05/06 13:42:37;;;;;;;1.40;0.90;;;;;;;26.50;23.23;98631.69;5093282;28;20066;-81
2021/05/06 13:45:05;;;;;;;3.25;0.98;;;;;;;26.49;23.67;98636.38;5093428;28;20028;-82
2021/05/06 13:47:30;;;;;;;0.90;0.90;;;;;;;26.45;23.13;98627.41;5093178;28;20055;-82
2021/05/06 13:49:56;;;;;;;0.73;0.68;;;;;;;26.42;24.18;98625.44;5093229;28;20451;-82
2021/05/06 13:52:24;;;;;;;2.65;1.05;;;;;;;26.43;23.26;98627.00;5092966;28;20423;-81
2021/05/06 13:54:51;;;;;;;2.38;1.00;;;;;;;26.46;23.81;98617.97;5093029;28;20023;-82
2021/05/06 13:57:17;;;;;;;1.30;0.93;;;;;;;26.50;23.33;98615.22;5092767;28;20020;-82
2021/05/06 13:59:43;;;;;;;2.40;1.17;;;;;;;26.48;22.60;98620.34;5093037;28;20083;-82
2021/05/06 14:02:08;;;;;;;0.63;0.63;;;;;;;26.51;22.69;98617.59;5092360;28;20020;-82
2021/05/06 14:04:34;;;;;;;3.35;0.98;;;;;;;26.55;21.93;98625.81;5092534;28;20410;-81
2021/05/06 14:06:59;;;;;;;1.55;0.90;;;;;;;26.52;22.56;98627.38;5092584;28;20505;-80
2021/05/06 14:09:25;;;;;;;2.60;1.90;;;;;;;26.54;23.09;98621.50;5092653;28;20028;-80
2021/05/06 14:11:51;;;;;;;2.42;0.88;;;;;;;26.54;23.22;98629.72;5091650;28;20467;-80
2021/05/06 14:14:17;;;;;;;2.33;1.10;;;;;;;26.49;22.92;98625.41;5092496;28;20028;-80
2021/05/06 14:16:43;;;;;;;0.82;0.82;;;;;;;26.46;23.42;98619.94;5092703;28;20026;-81
2021/05/06 14:19:12;;;;;;;0.95;0.95;;;;;;;26.51;23.12;98628.56;5092332;28;20032;-81
2021/05/06 14:21:39;;;;;;;0.90;0.90;;;;;;;26.47;23.59;98635.22;5093334;28;20106;-82
2021/05/06 14:24:06;;;;;;;1.58;0.93;;;;;;;26.47;23.28;98627.00;5092440;28;20039;-82
2021/05/06 14:26:32;;;;;;;1.00;0.90;;;;;;;26.45;24.23;98626.59;5092450;28;20024;-81
2021/05/06 14:28:58;;;;;;;0.95;0.95;;;;;;;26.45;24.41;98627.41;5092674;28;20028;-81
2021/05/06 14:31:23;;;;;;;1.23;1.00;;;;;;;26.47;24.67;98618.78;5092062;28;20047;-81
2021/05/06 14:33:49;;;;;;;1.25;1.15;;;;;;;26.49;24.39;98641.09;5092415;28;20047;-81
2021/05/06 14:36:15;;;;;;;1.40;0.90;;;;;;;26.46;24.52;98633.66;5092115;28;20503;-81
2021/05/06 14:38:41;;;;;;;2.25;1.02;;;;;;;26.50;24.69;98637.16;5092408;28;20115;-81
2021/05/06 14:41:08;;;;;;;1.92;1.10;;;;;;;26.47;24.69;98635.22;5092235;28;20024;-82
2021/05/06 14:43:33;;;;;;;2.97;1.17;;;;;;;26.46;24.82;98639.13;5092173;28;20417;-82
2021/05/06 14:45:59;;;;;;;1.20;0.95;;;;;;;26.46;24.73;98634.41;5092079;28;20058;-82
2021/05/06 14:48:25;;;;;;;2.47;1.48;;;;;;;26.48;24.64;98645.00;5091985;28;20020;-81
2021/05/06 14:50:51;;;;;;;3.42;1.75;;;;;;;26.48;24.48;98632.06;5092077;28;20162;-81
2021/05/06 14:53:17;;;;;;;1.95;1.85;;;;;;;26.47;23.79;98633.25;5091583;28;20111;-81
2021/05/06 14:55:42;;;;;;;1.98;1.83;;;;;;;26.47;24.13;98629.72;5091894;28;20111;-81
2021/05/06 14:58:08;;;;;;;1.80;1.27;;;;;;;26.42;23.72;98630.91;5091696;28;20153;-82
2021/05/06 15:00:34;;;;;;;1.52;1.33;;;;;;;26.43;23.91;98639.94;5091806;28;20035;-81
2021/05/06 15:03:00;;;;;;;1.65;1.08;;;;;;;26.43;24.61;98643.44;5091760;28;20020;-81
2021/05/06 15:05:26;;;;;;;3.63;1.20;;;;;;;26.44;24.19;98636.00;5091375;28;20388;-81
2021/05/06 15:07:51;;;;;;;1.63;1.23;;;;;;;26.47;24.10;98633.25;5091675;28;20016;-81
2021/05/06 15:10:17;;;;;;;2.22;1.40;;;;;;;26.48;24.47;98642.28;5091074;28;20380;-81
2021/05/06 15:12:46;;;;;;;3.65;1.40;;;;;;;26.48;24.42;98642.28;5091181;28;20024;-81
2021/05/06 15:15:13;;;;;;;2.35;1.73;;;;;;;26.45;24.43;98630.13;5090804;28;20390;-81